Council Grove, KS (66846)

6:32 AM CDT on July 24, 2014 (GMT -0500)
Timmerman School Area (KKSEMPOR4) Elev 1214 ft | 38.43 °N, 96.22 °W | Change Station

Current weather conditions updated 1 second ago

Clear
Clear
65.7 °F
Feels Like 65.7 °F
N
3.6
Wind Variable Wind from ENE
Gusts 4.9 mph

Today is forecast to be nearly the same temperature as yesterday.

Today
High -- | Low -- °F
--% Chance of Precip.
Yesterday
High -- | Low -- °F
Precip. -- in
6:20 AM 8:43 PM
Waning Crescent, 6% visible
Pressure 30.09 in
Visibility 10.0 miles
Clouds Clear
Dew Point 64 °F
Humidity 94%
Rainfall 0.00 in
Snow Depth Not available.
UV 0 out of 12
Pollen 5.70 out of 12
Air Quality Not available.
Flu Activity Not available.
METAR KEMP 241053Z AUTO 08006KT 10SM CLR 18/17 A3011 RMK AO2 SLP188 T01780167

More Conditions Fewer Conditions

Pressure 30.09 in
Visibility 10.0 miles
Clouds Clear
Dew Point 64 °F
Humidity 94%
Rainfall 0.00 in
Snow Depth Not available.
UV 0 out of 12
Pollen 5.70 out of 12
Air Quality Not available.
Flu Activity Not available.
METAR KEMP 241053Z AUTO 08006KT 10SM CLR 18/17 A3011 RMK AO2 SLP188 T01780167

More Conditions Fewer Conditions

10-Day Weather Forecast

Almanac

Astronomy

Jul. 24, 2014 Rise Set
Actual Time 6:20 AM CDT 8:43 PM CDT
Civil Twilight 5:50 AM CDT 9:13 PM CDT
Nautical Twilight 5:13 AM CDT 9:51 PM CDT
Astronomical Twilight 4:31 AM CDT 10:32 PM CDT
Moon 4:29 AM CDT 7:00 PM CDT
Length of Visible Light 15h 23m
Length of Day
14h 23m
Tomorrow will be 1m 40s shorter.
Waning Crescent, 6% of the Moon is Illuminated
Today
Waning Crescent
Jul 26
New
Aug 3
First Quarter
Aug 10
Full
Aug 17
Last Quarter

Today's Extremes

State Highs State Lows

Community

WunderPhotos

Upload Photos

1,736,977 photos uploaded!

Nearby

Snow Depth

Station Depth Elevation
No new snow has been reported.

Earthquake Activity

City Distance Mag. Time & Date
Harper, Kansas 127 miles 3.0 7:24 PM CDT
2014-07-19
Cherokee, Oklahoma 166 miles 2.5 10:35 AM CDT
2014-07-17
Minimum magnitude displayed is 2.5.

Coastal Water Temperatures

Place Temperature
No Stations Reporting

Nearby Weather Stations

Station Location Temp. Dew Point Humidity Wind Precip. Elev Updated Type
MesoWest DWIGHT , Dwight, KS 65 °F - - North  at  - 0.00 in / hr 1443 ft 4:30 AM CDT MADIS
RAWS TALLGRASS PRAIRIE KS, Strong City, KS 67 °F 63 °F 88% NNE  at  4 mph 0.00 in / hr 1230 ft 5:30 AM CDT MADIS
MesoWest LATIMR , White City, KS 64 °F - - North  at  - 0.00 in / hr 1425 ft 4:25 AM CDT MADIS
Timmerman School Area, Emporia, KS 65.7 °F 64 °F 94% ENE  at  3.6 mph 0.00 in / hr 1214 ft 6:32 AM CDT Rapid Fire
MesoWest VOLLND , Alma, KS 65 °F - - North  at  - 0.00 in / hr 1110 ft 4:35 AM CDT MADIS
Rural Flint Hills of Emporia, Emporia, KS 64.0 °F 62 °F 93% East  at  2.0 mph 0.00 in / hr 1270 ft 6:25 AM CDT Normal

Show More Stations Show Fewer Stations